sensor_id;sensor_type;location;lat;lon;timestamp;pressure;altitude;pressure_sealevel;temperature;humidity
75513;BME280;64090;49.770;18.760;2023-02-28T00:01:09;98759.98;;;-1.76;72.95
75513;BME280;64090;49.770;18.760;2023-02-28T00:04:16;98761.78;;;-1.74;72.77
75513;BME280;64090;49.770;18.760;2023-02-28T00:07:28;98757.05;;;-1.73;73.05
75513;BME280;64090;49.770;18.760;2023-02-28T00:10:37;98759.46;;;-1.73;72.71
75513;BME280;64090;49.770;18.760;2023-02-28T00:13:45;98761.57;;;-1.74;73.05
75513;BME280;64090;49.770;18.760;2023-02-28T00:16:52;98762.28;;;-1.74;72.98
75513;BME280;64090;49.770;18.760;2023-02-28T00:20:16;98763.46;;;-1.74;73.08
75513;BME280;64090;49.770;18.760;2023-02-28T00:23:29;98762.92;;;-1.73;72.84
75513;BME280;64090;49.770;18.760;2023-02-28T00:26:32;98762.75;;;-1.73;72.96
75513;BME280;64090;49.770;18.760;2023-02-28T00:29:39;98764.56;;;-1.75;73.28
75513;BME280;64090;49.770;18.760;2023-02-28T00:32:44;98760.77;;;-1.75;73.15
75513;BME280;64090;49.770;18.760;2023-02-28T00:36:06;98761.30;;;-1.75;73.36
75513;BME280;64090;49.770;18.760;2023-02-28T00:39:13;98758.35;;;-1.75;73.21
75513;BME280;64090;49.770;18.760;2023-02-28T00:42:40;98759.55;;;-1.75;73.10
75513;BME280;64090;49.770;18.760;2023-02-28T00:46:00;98756.33;;;-1.73;73.24
75513;BME280;64090;49.770;18.760;2023-02-28T00:49:20;98748.54;;;-1.74;73.41
75513;BME280;64090;49.770;18.760;2023-02-28T00:52:45;98747.73;;;-1.75;73.34
75513;BME280;64090;49.770;18.760;2023-02-28T00:55:50;98745.61;;;-1.77;73.32
75513;BME280;64090;49.770;18.760;2023-02-28T00:58:53;98745.27;;;-1.77;73.53
75513;BME280;64090;49.770;18.760;2023-02-28T01:02:00;98741.98;;;-1.80;73.62
75513;BME280;64090;49.770;18.760;2023-02-28T01:05:05;98741.98;;;-1.80;73.49
75513;BME280;64090;49.770;18.760;2023-02-28T01:08:24;98739.90;;;-1.82;73.35
75513;BME280;64090;49.770;18.760;2023-02-28T01:11:31;98741.64;;;-1.83;73.53
75513;BME280;64090;49.770;18.760;2023-02-28T01:14:51;98741.54;;;-1.83;73.53
75513;BME280;64090;49.770;18.760;2023-02-28T01:17:54;98738.59;;;-1.86;73.18
75513;BME280;64090;49.770;18.760;2023-02-28T01:21:25;98736.92;;;-1.90;73.34
75513;BME280;64090;49.770;18.760;2023-02-28T01:24:34;98736.39;;;-1.89;72.83
75513;BME280;64090;49.770;18.760;2023-02-28T01:27:37;98743.30;;;-1.92;72.44
75513;BME280;64090;49.770;18.760;2023-02-28T01:30:42;98739.70;;;-1.92;72.21
75513;BME280;64090;49.770;18.760;2023-02-28T01:33:46;98737.24;;;-1.95;72.38
75513;BME280;64090;49.770;18.760;2023-02-28T01:36:53;98736.04;;;-1.95;72.46
75513;BME280;64090;49.770;18.760;2023-02-28T01:39:56;98733.40;;;-1.94;72.60
75513;BME280;64090;49.770;18.760;2023-02-28T01:43:01;98727.77;;;-1.96;72.60
75513;BME280;64090;49.770;18.760;2023-02-28T01:46:06;98726.45;;;-2.00;72.19
75513;BME280;64090;49.770;18.760;2023-02-28T01:49:15;98727.06;;;-2.01;72.27
75513;BME280;64090;49.770;18.760;2023-02-28T01:52:21;98725.02;;;-2.04;71.52
75513;BME280;64090;49.770;18.760;2023-02-28T01:55:30;98723.85;;;-2.05;71.35
75513;BME280;64090;49.770;18.760;2023-02-28T02:01:56;98717.79;;;-2.00;72.03
75513;BME280;64090;49.770;18.760;2023-02-28T02:05:07;98721.09;;;-2.00;72.05
75513;BME280;64090;49.770;18.760;2023-02-28T02:08:15;98714.39;;;-1.99;71.85
75513;BME280;64090;49.770;18.760;2023-02-28T02:11:23;98709.56;;;-1.99;71.64
75513;BME280;64090;49.770;18.760;2023-02-28T02:14:51;98714.04;;;-2.01;71.84
75513;BME280;64090;49.770;18.760;2023-02-28T02:30:20;98719.00;;;-2.13;71.10
75513;BME280;64090;49.770;18.760;2023-02-28T02:34:33;98711.10;;;-2.14;71.20
75513;BME280;64090;49.770;18.760;2023-02-28T02:41:19;98708.11;;;-2.27;71.14
75513;BME280;64090;49.770;18.760;2023-02-28T02:45:04;98710.84;;;-2.34;71.29
75513;BME280;64090;49.770;18.760;2023-02-28T02:48:19;98712.21;;;-2.42;71.39
75513;BME280;64090;49.770;18.760;2023-02-28T02:51:34;98711.05;;;-2.48;71.63
75513;BME280;64090;49.770;18.760;2023-02-28T02:54:50;98719.52;;;-2.56;71.90
75513;BME280;64090;49.770;18.760;2023-02-28T02:58:08;98720.02;;;-2.64;71.98
75513;BME280;64090;49.770;18.760;2023-02-28T03:01:19;98719.46;;;-2.71;72.00
75513;BME280;64090;49.770;18.760;2023-02-28T03:04:40;98727.95;;;-2.76;72.45
75513;BME280;64090;49.770;18.760;2023-02-28T03:07:45;98723.98;;;-2.79;72.66
75513;BME280;64090;49.770;18.760;2023-02-28T03:10:55;98725.78;;;-2.84;72.60
75513;BME280;64090;49.770;18.760;2023-02-28T03:15:27;98726.77;;;-2.88;72.80
75513;BME280;64090;49.770;18.760;2023-02-28T03:22:09;98728.95;;;-2.95;73.10
75513;BME280;64090;49.770;18.760;2023-02-28T03:26:07;98726.24;;;-2.96;72.93
75513;BME280;64090;49.770;18.760;2023-02-28T03:29:28;98726.88;;;-3.01;73.58
75513;BME280;64090;49.770;18.760;2023-02-28T03:33:10;98728.20;;;-3.03;72.99
75513;BME280;64090;49.770;18.760;2023-02-28T03:36:20;98734.53;;;-3.07;72.43
75513;BME280;64090;49.770;18.760;2023-02-28T03:39:54;98732.11;;;-3.07;71.51
75513;BME280;64090;49.770;18.760;2023-02-28T03:43:06;98736.66;;;-3.08;71.11
75513;BME280;64090;49.770;18.760;2023-02-28T03:46:36;98737.17;;;-3.06;69.86
75513;BME280;64090;49.770;18.760;2023-02-28T03:50:05;98736.94;;;-3.04;69.99
75513;BME280;64090;49.770;18.760;2023-02-28T03:53:33;98739.98;;;-3.06;70.28
75513;BME280;64090;49.770;18.760;2023-02-28T04:01:09;98737.55;;;-3.17;69.98
75513;BME280;64090;49.770;18.760;2023-02-28T04:04:16;98742.91;;;-3.22;70.11
75513;BME280;64090;49.770;18.760;2023-02-28T04:07:50;98749.80;;;-3.30;70.30
75513;BME280;64090;49.770;18.760;2023-02-28T04:11:08;98748.73;;;-3.35;70.39
75513;BME280;64090;49.770;18.760;2023-02-28T04:14:34;98751.02;;;-3.36;70.27
75513;BME280;64090;49.770;18.760;2023-02-28T04:17:56;98753.05;;;-3.38;70.02
75513;BME280;64090;49.770;18.760;2023-02-28T04:21:04;98750.88;;;-3.39;70.12
75513;BME280;64090;49.770;18.760;2023-02-28T04:24:33;98757.00;;;-3.40;70.24
75513;BME280;64090;49.770;18.760;2023-02-28T04:28:16;98758.13;;;-3.42;70.17
75513;BME280;64090;49.770;18.760;2023-02-28T04:31:32;98757.36;;;-3.43;70.09
75513;BME280;64090;49.770;18.760;2023-02-28T04:34:53;98753.39;;;-3.50;70.18
75513;BME280;64090;49.770;18.760;2023-02-28T04:38:16;98752.42;;;-3.57;70.46
75513;BME280;64090;49.770;18.760;2023-02-28T04:41:35;98754.70;;;-3.60;70.43
75513;BME280;64090;49.770;18.760;2023-02-28T04:44:55;98755.05;;;-3.60;70.70
75513;BME280;64090;49.770;18.760;2023-02-28T04:48:02;98750.18;;;-3.62;70.98
75513;BME280;64090;49.770;18.760;2023-02-28T04:51:13;98751.43;;;-3.66;71.21
75513;BME280;64090;49.770;18.760;2023-02-28T04:54:33;98750.64;;;-3.70;71.50
75513;BME280;64090;49.770;18.760;2023-02-28T04:57:51;98752.34;;;-3.73;71.74
75513;BME280;64090;49.770;18.760;2023-02-28T05:01:02;98751.46;;;-3.76;71.91
75513;BME280;64090;49.770;18.760;2023-02-28T05:04:26;98745.10;;;-3.79;71.99
75513;BME280;64090;49.770;18.760;2023-02-28T05:07:37;98750.77;;;-3.84;72.09
75513;BME280;64090;49.770;18.760;2023-02-28T05:10:44;98752.04;;;-3.92;72.52
75513;BME280;64090;49.770;18.760;2023-02-28T05:14:12;98753.15;;;-3.96;72.23
75513;BME280;64090;49.770;18.760;2023-02-28T05:17:55;98752.89;;;-4.03;72.46
75513;BME280;64090;49.770;18.760;2023-02-28T05:21:29;98759.63;;;-4.06;72.48
75513;BME280;64090;49.770;18.760;2023-02-28T05:24:34;98766.61;;;-4.07;72.76
75513;BME280;64090;49.770;18.760;2023-02-28T05:28:17;98764.05;;;-4.07;72.94
75513;BME280;64090;49.770;18.760;2023-02-28T05:31:43;98767.50;;;-4.07;73.30
75513;BME280;64090;49.770;18.760;2023-02-28T05:35:06;98771.05;;;-4.03;74.11
75513;BME280;64090;49.770;18.760;2023-02-28T05:38:30;98775.00;;;-3.99;74.15
75513;BME280;64090;49.770;18.760;2023-02-28T05:41:42;98775.50;;;-3.99;74.03
75513;BME280;64090;49.770;18.760;2023-02-28T05:45:14;98782.95;;;-3.99;73.90
75513;BME280;64090;49.770;18.760;2023-02-28T05:48:53;98785.11;;;-3.97;74.34
75513;BME280;64090;49.770;18.760;2023-02-28T05:52:13;98794.12;;;-4.01;74.20
75513;BME280;64090;49.770;18.760;2023-02-28T05:55:16;98798.15;;;-4.02;75.31
75513;BME280;64090;49.770;18.760;2023-02-28T05:58:52;98806.29;;;-4.01;74.29
75513;BME280;64090;49.770;18.760;2023-02-28T06:02:17;98812.73;;;-3.99;73.73
75513;BME280;64090;49.770;18.760;2023-02-28T06:05:28;98813.15;;;-3.97;73.86
75513;BME280;64090;49.770;18.760;2023-02-28T06:08:43;98815.45;;;-3.98;73.84
75513;BME280;64090;49.770;18.760;2023-02-28T06:12:12;98814.59;;;-3.99;74.21
75513;BME280;64090;49.770;18.760;2023-02-28T06:16:02;98819.98;;;-3.99;74.09
75513;BME280;64090;49.770;18.760;2023-02-28T06:19:29;98819.14;;;-3.99;73.87
75513;BME280;64090;49.770;18.760;2023-02-28T06:22:57;98823.39;;;-3.95;75.59
75513;BME280;64090;49.770;18.760;2023-02-28T06:26:11;98820.66;;;-3.86;74.71
75513;BME280;64090;49.770;18.760;2023-02-28T06:29:35;98824.85;;;-3.78;75.31
75513;BME280;64090;49.770;18.760;2023-02-28T06:33:01;98829.69;;;-3.68;75.23
75513;BME280;64090;49.770;18.760;2023-02-28T06:36:34;98831.06;;;-3.56;75.77
75513;BME280;64090;49.770;18.760;2023-02-28T06:39:41;98833.59;;;-3.46;76.06
75513;BME280;64090;49.770;18.760;2023-02-28T06:43:05;98830.77;;;-3.37;76.52
75513;BME280;64090;49.770;18.760;2023-02-28T06:46:14;98828.63;;;-3.27;77.15
75513;BME280;64090;49.770;18.760;2023-02-28T06:49:39;98827.86;;;-3.17;76.95
75513;BME280;64090;49.770;18.760;2023-02-28T06:53:06;98829.92;;;-3.05;76.51
75513;BME280;64090;49.770;18.760;2023-02-28T06:56:37;98828.08;;;-2.94;76.58
75513;BME280;64090;49.770;18.760;2023-02-28T07:00:05;98832.16;;;-2.82;76.22
75513;BME280;64090;49.770;18.760;2023-02-28T07:03:31;98834.09;;;-2.68;76.42
75513;BME280;64090;49.770;18.760;2023-02-28T07:06:49;98833.45;;;-2.52;75.93
75513;BME280;64090;49.770;18.760;2023-02-28T07:10:21;98839.02;;;-2.33;75.67
75513;BME280;64090;49.770;18.760;2023-02-28T07:14:02;98839.02;;;-2.11;75.60
75513;BME280;64090;49.770;18.760;2023-02-28T07:17:10;98844.27;;;-1.87;75.15
75513;BME280;64090;49.770;18.760;2023-02-28T07:20:20;98849.23;;;-1.64;74.73
75513;BME280;64090;49.770;18.760;2023-02-28T07:23:33;98855.64;;;-1.38;73.86
75513;BME280;64090;49.770;18.760;2023-02-28T07:27:00;98854.16;;;-1.11;73.41
75513;BME280;64090;49.770;18.760;2023-02-28T07:30:23;98855.48;;;-0.74;72.78
75513;BME280;64090;49.770;18.760;2023-02-28T07:33:42;98851.80;;;-0.36;71.02
75513;BME280;64090;49.770;18.760;2023-02-28T07:37:06;98857.02;;;-0.07;69.99
75513;BME280;64090;49.770;18.760;2023-02-28T07:40:20;98857.40;;;0.20;70.54
75513;BME280;64090;49.770;18.760;2023-02-28T07:43:28;98858.48;;;0.52;68.79
75513;BME280;64090;49.770;18.760;2023-02-28T07:46:32;98857.86;;;0.75;68.84
75513;BME280;64090;49.770;18.760;2023-02-28T07:50:05;98851.41;;;1.05;65.25
75513;BME280;64090;49.770;18.760;2023-02-28T07:53:24;98855.97;;;1.27;65.54
75513;BME280;64090;49.770;18.760;2023-02-28T07:56:31;98851.69;;;1.49;65.51
75513;BME280;64090;49.770;18.760;2023-02-28T07:59:42;98853.16;;;1.68;64.32
75513;BME280;64090;49.770;18.760;2023-02-28T08:03:12;98846.19;;;1.83;63.55
75513;BME280;64090;49.770;18.760;2023-02-28T08:06:37;98845.59;;;1.95;63.20
75513;BME280;64090;49.770;18.760;2023-02-28T08:09:48;98845.41;;;2.06;62.94
75513;BME280;64090;49.770;18.760;2023-02-28T08:13:11;98841.11;;;2.13;62.56
75513;BME280;64090;49.770;18.760;2023-02-28T08:16:35;98843.34;;;2.21;61.58
75513;BME280;64090;49.770;18.760;2023-02-28T08:19:42;98843.63;;;2.24;60.91
75513;BME280;64090;49.770;18.760;2023-02-28T08:23:04;98842.86;;;2.29;60.21
75513;BME280;64090;49.770;18.760;2023-02-28T08:26:28;98845.17;;;2.34;59.37
75513;BME280;64090;49.770;18.760;2023-02-28T08:29:51;98843.60;;;2.43;59.78
75513;BME280;64090;49.770;18.760;2023-02-28T08:33:29;98845.18;;;2.49;59.44
75513;BME280;64090;49.770;18.760;2023-02-28T08:36:54;98847.27;;;2.43;57.42
75513;BME280;64090;49.770;18.760;2023-02-28T08:40:15;98854.37;;;2.55;58.25
75513;BME280;64090;49.770;18.760;2023-02-28T08:43:37;98855.33;;;2.51;58.29
75513;BME280;64090;49.770;18.760;2023-02-28T08:46:56;98854.67;;;2.49;58.10
75513;BME280;64090;49.770;18.760;2023-02-28T08:50:03;98851.52;;;2.51;58.10
75513;BME280;64090;49.770;18.760;2023-02-28T08:53:28;98853.23;;;2.43;57.36
75513;BME280;64090;49.770;18.760;2023-02-28T08:56:39;98847.73;;;2.27;55.99
75513;BME280;64090;49.770;18.760;2023-02-28T08:59:47;98855.57;;;2.14;56.35
75513;BME280;64090;49.770;18.760;2023-02-28T09:03:12;98850.98;;;2.02;56.09
75513;BME280;64090;49.770;18.760;2023-02-28T09:06:29;98852.55;;;1.93;56.74
75513;BME280;64090;49.770;18.760;2023-02-28T09:09:54;98844.79;;;1.87;56.43
75513;BME280;64090;49.770;18.760;2023-02-28T09:13:27;98848.18;;;1.86;56.30
75513;BME280;64090;49.770;18.760;2023-02-28T09:16:50;98848.67;;;1.87;56.32
75513;BME280;64090;49.770;18.760;2023-02-28T09:20:28;98845.84;;;1.85;56.32
75513;BME280;64090;49.770;18.760;2023-02-28T09:23:47;98847.27;;;1.87;56.12
75513;BME280;64090;49.770;18.760;2023-02-28T09:26:55;98851.46;;;1.84;55.77
75513;BME280;64090;49.770;18.760;2023-02-28T09:30:28;98849.65;;;1.83;55.61
75513;BME280;64090;49.770;18.760;2023-02-28T09:33:39;98852.48;;;1.76;55.59
75513;BME280;64090;49.770;18.760;2023-02-28T09:36:46;98851.49;;;1.76;56.06
75513;BME280;64090;49.770;18.760;2023-02-28T09:40:07;98853.60;;;1.77;55.76
75513;BME280;64090;49.770;18.760;2023-02-28T09:43:34;98854.98;;;1.74;55.82
75513;BME280;64090;49.770;18.760;2023-02-28T09:46:50;98856.10;;;1.79;56.02
75513;BME280;64090;49.770;18.760;2023-02-28T09:49:59;98852.83;;;1.85;55.81
75513;BME280;64090;49.770;18.760;2023-02-28T09:53:41;98849.80;;;1.86;55.63
75513;BME280;64090;49.770;18.760;2023-02-28T09:57:19;98853.88;;;1.85;54.48
75513;BME280;64090;49.770;18.760;2023-02-28T10:00:33;98855.45;;;1.83;55.59
75513;BME280;64090;49.770;18.760;2023-02-28T10:03:50;98857.07;;;1.91;55.19
75513;BME280;64090;49.770;18.760;2023-02-28T10:07:02;98855.80;;;1.89;54.85
75513;BME280;64090;49.770;18.760;2023-02-28T10:10:30;98848.65;;;1.89;55.48
75513;BME280;64090;49.770;18.760;2023-02-28T10:17:38;98852.62;;;1.99;55.25
75513;BME280;64090;49.770;18.760;2023-02-28T10:21:03;98852.17;;;2.09;54.05
75513;BME280;64090;49.770;18.760;2023-02-28T10:24:42;98851.80;;;1.98;53.79
75513;BME280;64090;49.770;18.760;2023-02-28T10:28:13;98850.38;;;1.99;54.39
75513;BME280;64090;49.770;18.760;2023-02-28T10:31:25;98840.85;;;2.02;53.97
75513;BME280;64090;49.770;18.760;2023-02-28T10:34:50;98844.60;;;2.01;54.34
75513;BME280;64090;49.770;18.760;2023-02-28T10:38:20;98843.13;;;2.00;53.87
75513;BME280;64090;49.770;18.760;2023-02-28T10:41:47;98847.61;;;1.96;54.34
75513;BME280;64090;49.770;18.760;2023-02-28T10:45:15;98839.40;;;1.98;54.35
75513;BME280;64090;49.770;18.760;2023-02-28T10:48:50;98831.02;;;2.02;53.99
75513;BME280;64090;49.770;18.760;2023-02-28T10:52:07;98830.27;;;2.01;54.52
75513;BME280;64090;49.770;18.760;2023-02-28T10:55:25;98821.27;;;2.06;54.46
75513;BME280;64090;49.770;18.760;2023-02-28T10:59:26;98819.33;;;2.06;54.45
75513;BME280;64090;49.770;18.760;2023-02-28T11:02:43;98819.01;;;2.10;54.65
75513;BME280;64090;49.770;18.760;2023-02-28T11:06:13;98810.43;;;2.08;54.09
75513;BME280;64090;49.770;18.760;2023-02-28T11:09:32;98813.10;;;2.10;54.57
75513;BME280;64090;49.770;18.760;2023-02-28T11:12:41;98814.54;;;2.13;54.79
75513;BME280;64090;49.770;18.760;2023-02-28T11:16:21;98814.16;;;2.16;54.82
75513;BME280;64090;49.770;18.760;2023-02-28T11:19:46;98806.80;;;2.12;54.76
75513;BME280;64090;49.770;18.760;2023-02-28T11:22:52;98807.97;;;2.10;54.67
75513;BME280;64090;49.770;18.760;2023-02-28T11:26:36;98799.09;;;2.06;54.87
75513;BME280;64090;49.770;18.760;2023-02-28T11:30:02;98795.23;;;2.06;55.43
75513;BME280;64090;49.770;18.760;2023-02-28T11:33:47;98790.16;;;2.10;55.92
75513;BME280;64090;49.770;18.760;2023-02-28T11:37:30;98790.48;;;2.11;55.40
75513;BME280;64090;49.770;18.760;2023-02-28T11:48:04;98789.89;;;2.11;56.35
75513;BME280;64090;49.770;18.760;2023-02-28T11:51:34;98797.00;;;2.10;56.13
75513;BME280;64090;49.770;18.760;2023-02-28T11:55:31;98800.61;;;2.06;56.15
75513;BME280;64090;49.770;18.760;2023-02-28T11:59:38;98797.87;;;2.08;56.73
75513;BME280;64090;49.770;18.760;2023-02-28T12:03:41;98791.86;;;2.13;56.56
75513;BME280;64090;49.770;18.760;2023-02-28T12:07:11;98792.64;;;2.23;56.14
75513;BME280;64090;49.770;18.760;2023-02-28T12:11:31;98790.96;;;2.22;56.12
75513;BME280;64090;49.770;18.760;2023-02-28T12:23:41;98771.56;;;2.30;56.83
75513;BME280;64090;49.770;18.760;2023-02-28T12:26:46;98777.30;;;2.31;56.38
75513;BME280;64090;49.770;18.760;2023-02-28T12:33:36;98765.63;;;2.34;56.44
75513;BME280;64090;49.770;18.760;2023-02-28T12:36:53;98772.21;;;2.35;56.85
75513;BME280;64090;49.770;18.760;2023-02-28T12:40:27;98766.92;;;2.37;56.73
75513;BME280;64090;49.770;18.760;2023-02-28T12:43:37;98773.33;;;2.40;56.62
75513;BME280;64090;49.770;18.760;2023-02-28T12:47:09;98769.15;;;2.44;56.59
75513;BME280;64090;49.770;18.760;2023-02-28T12:50:22;98770.19;;;2.45;56.70
75513;BME280;64090;49.770;18.760;2023-02-28T12:57:43;98770.98;;;2.54;56.52
75513;BME280;64090;49.770;18.760;2023-02-28T13:04:47;98763.71;;;2.53;56.87
75513;BME280;64090;49.770;18.760;2023-02-28T13:12:24;98756.04;;;2.59;57.03
75513;BME280;64090;49.770;18.760;2023-02-28T13:15:41;98755.13;;;2.57;56.62
75513;BME280;64090;49.770;18.760;2023-02-28T13:19:10;98752.75;;;2.56;56.82
75513;BME280;64090;49.770;18.760;2023-02-28T13:26:15;98752.50;;;2.68;57.59
75513;BME280;64090;49.770;18.760;2023-02-28T13:29:51;98749.34;;;2.70;57.12
75513;BME280;64090;49.770;18.760;2023-02-28T13:33:28;98747.20;;;2.74;56.65
75513;BME280;64090;49.770;18.760;2023-02-28T13:36:43;98739.98;;;2.71;57.01
75513;BME280;64090;49.770;18.760;2023-02-28T13:47:42;98750.48;;;2.63;56.42
75513;BME280;64090;49.770;18.760;2023-02-28T13:50:59;98740.63;;;2.64;57.10
75513;BME280;64090;49.770;18.760;2023-02-28T13:58:22;98733.58;;;2.64;56.80
75513;BME280;64090;49.770;18.760;2023-02-28T14:02:39;98732.27;;;2.59;56.54
75513;BME280;64090;49.770;18.760;2023-02-28T14:06:10;98727.83;;;2.55;56.51
75513;BME280;64090;49.770;18.760;2023-02-28T14:09:40;98724.98;;;2.56;56.52
75513;BME280;64090;49.770;18.760;2023-02-28T14:13:36;98717.55;;;2.57;56.64
75513;BME280;64090;49.770;18.760;2023-02-28T14:16:59;98723.83;;;2.55;56.35
75513;BME280;64090;49.770;18.760;2023-02-28T14:20:22;98723.11;;;2.49;56.49
75513;BME280;64090;49.770;18.760;2023-02-28T14:27:55;98721.15;;;2.49;56.38
75513;BME280;64090;49.770;18.760;2023-02-28T14:31:18;98708.07;;;2.45;56.61
75513;BME280;64090;49.770;18.760;2023-02-28T14:35:11;98711.81;;;2.48;56.14
75513;BME280;64090;49.770;18.760;2023-02-28T14:46:26;98713.23;;;2.35;56.43
75513;BME280;64090;49.770;18.760;2023-02-28T14:49:36;98717.93;;;2.31;56.26
75513;BME280;64090;49.770;18.760;2023-02-28T14:53:03;98712.80;;;2.26;56.50
75513;BME280;64090;49.770;18.760;2023-02-28T14:56:22;98713.23;;;2.25;56.58
75513;BME280;64090;49.770;18.760;2023-02-28T14:59:56;98715.55;;;2.23;56.67
75513;BME280;64090;49.770;18.760;2023-02-28T15:03:36;98722.02;;;2.18;56.78
75513;BME280;64090;49.770;18.760;2023-02-28T15:06:46;98717.84;;;2.14;57.10
75513;BME280;64090;49.770;18.760;2023-02-28T15:10:17;98718.92;;;2.09;57.36
75513;BME280;64090;49.770;18.760;2023-02-28T15:13:42;98719.52;;;2.04;57.33
75513;BME280;64090;49.770;18.760;2023-02-28T15:17:02;98721.27;;;1.95;57.25
75513;BME280;64090;49.770;18.760;2023-02-28T15:20:12;98717.43;;;1.87;57.13
75513;BME280;64090;49.770;18.760;2023-02-28T15:24:30;98716.36;;;1.77;57.55
75513;BME280;64090;49.770;18.760;2023-02-28T15:28:04;98715.96;;;1.68;57.99
75513;BME280;64090;49.770;18.760;2023-02-28T15:31:33;98718.23;;;1.62;57.95
75513;BME280;64090;49.770;18.760;2023-02-28T15:38:40;98706.15;;;1.43;58.43
75513;BME280;64090;49.770;18.760;2023-02-28T15:42:22;98702.25;;;1.32;58.36
75513;BME280;64090;49.770;18.760;2023-02-28T15:45:47;98709.59;;;1.23;58.60
75513;BME280;64090;49.770;18.760;2023-02-28T15:48:56;98711.02;;;1.15;58.84
75513;BME280;64090;49.770;18.760;2023-02-28T15:52:09;98711.31;;;1.04;59.03
75513;BME280;64090;49.770;18.760;2023-02-28T15:55:27;98712.04;;;0.95;59.03
75513;BME280;64090;49.770;18.760;2023-02-28T15:58:36;98717.45;;;0.86;59.39
75513;BME280;64090;49.770;18.760;2023-02-28T16:01:47;98718.84;;;0.74;59.69
75513;BME280;64090;49.770;18.760;2023-02-28T16:05:19;98720.64;;;0.64;59.58
75513;BME280;64090;49.770;18.760;2023-02-28T16:08:35;98727.29;;;0.55;59.91
75513;BME280;64090;49.770;18.760;2023-02-28T16:12:04;98726.98;;;0.46;60.40
75513;BME280;64090;49.770;18.760;2023-02-28T16:15:32;98726.02;;;0.33;60.80
75513;BME280;64090;49.770;18.760;2023-02-28T16:18:40;98728.46;;;0.24;61.11
75513;BME280;64090;49.770;18.760;2023-02-28T16:22:08;98730.01;;;0.15;61.14
75513;BME280;64090;49.770;18.760;2023-02-28T16:25:26;98724.41;;;0.06;61.73
75513;BME280;64090;49.770;18.760;2023-02-28T16:28:51;98728.92;;;-0.06;61.86
75513;BME280;64090;49.770;18.760;2023-02-28T16:32:15;98732.40;;;-0.18;62.03
75513;BME280;64090;49.770;18.760;2023-02-28T16:35:37;98730.95;;;-0.29;62.16
75513;BME280;64090;49.770;18.760;2023-02-28T16:38:48;98729.23;;;-0.39;62.45
75513;BME280;64090;49.770;18.760;2023-02-28T16:42:31;98732.70;;;-0.48;62.69
75513;BME280;64090;49.770;18.760;2023-02-28T16:46:00;98734.86;;;-0.59;63.10
75513;BME280;64090;49.770;18.760;2023-02-28T16:49:17;98737.33;;;-0.67;63.34
75513;BME280;64090;49.770;18.760;2023-02-28T16:52:44;98737.56;;;-0.72;63.76
75513;BME280;64090;49.770;18.760;2023-02-28T16:56:03;98746.99;;;-0.80;63.99
75513;BME280;64090;49.770;18.760;2023-02-28T16:59:26;98751.39;;;-0.83;64.86
75513;BME280;64090;49.770;18.760;2023-02-28T17:02:35;98753.51;;;-0.86;64.19
75513;BME280;64090;49.770;18.760;2023-02-28T17:06:00;98753.17;;;-0.89;64.35
75513;BME280;64090;49.770;18.760;2023-02-28T17:09:09;98759.02;;;-0.93;64.55
75513;BME280;64090;49.770;18.760;2023-02-28T17:12:39;98759.80;;;-0.97;64.79
75513;BME280;64090;49.770;18.760;2023-02-28T17:16:03;98759.42;;;-0.98;64.74
75513;BME280;64090;49.770;18.760;2023-02-28T17:19:45;98756.70;;;-0.99;65.17
75513;BME280;64090;49.770;18.760;2023-02-28T17:22:58;98758.09;;;-1.02;64.96
75513;BME280;64090;49.770;18.760;2023-02-28T17:26:09;98759.64;;;-1.06;65.07
75513;BME280;64090;49.770;18.760;2023-02-28T17:29:37;98759.61;;;-1.12;64.77
75513;BME280;64090;49.770;18.760;2023-02-28T17:32:58;98758.96;;;-1.17;65.70
75513;BME280;64090;49.770;18.760;2023-02-28T17:36:13;98763.73;;;-1.21;65.34
75513;BME280;64090;49.770;18.760;2023-02-28T17:39:37;98765.14;;;-1.23;65.49
75513;BME280;64090;49.770;18.760;2023-02-28T17:43:14;98764.42;;;-1.26;65.72
75513;BME280;64090;49.770;18.760;2023-02-28T17:46:31;98764.08;;;-1.34;65.65
75513;BME280;64090;49.770;18.760;2023-02-28T17:49:57;98760.42;;;-1.39;65.53
75513;BME280;64090;49.770;18.760;2023-02-28T17:53:36;98762.41;;;-1.42;65.91
75513;BME280;64090;49.770;18.760;2023-02-28T17:56:58;98766.14;;;-1.46;66.53
75513;BME280;64090;49.770;18.760;2023-02-28T18:00:11;98769.31;;;-1.49;66.48
75513;BME280;64090;49.770;18.760;2023-02-28T18:03:36;98761.40;;;-1.50;66.79
75513;BME280;64090;49.770;18.760;2023-02-28T18:06:58;98762.27;;;-1.56;66.63
75513;BME280;64090;49.770;18.760;2023-02-28T18:10:16;98765.16;;;-1.60;67.05
75513;BME280;64090;49.770;18.760;2023-02-28T18:13:38;98767.77;;;-1.62;67.10
75513;BME280;64090;49.770;18.760;2023-02-28T18:17:01;98767.10;;;-1.65;67.70
75513;BME280;64090;49.770;18.760;2023-02-28T18:20:33;98765.64;;;-1.64;67.74
75513;BME280;64090;49.770;18.760;2023-02-28T18:24:00;98764.21;;;-1.64;68.30
75513;BME280;64090;49.770;18.760;2023-02-28T18:27:18;98762.77;;;-1.65;68.33
75513;BME280;64090;49.770;18.760;2023-02-28T18:30:37;98766.20;;;-1.67;68.23
75513;BME280;64090;49.770;18.760;2023-02-28T18:34:08;98762.02;;;-1.70;68.33
75513;BME280;64090;49.770;18.760;2023-02-28T18:37:27;98768.22;;;-1.74;68.52
75513;BME280;64090;49.770;18.760;2023-02-28T18:40:39;98767.48;;;-1.79;68.71
75513;BME280;64090;49.770;18.760;2023-02-28T18:44:01;98766.81;;;-1.84;68.43
75513;BME280;64090;49.770;18.760;2023-02-28T18:47:38;98767.07;;;-1.89;68.91
75513;BME280;64090;49.770;18.760;2023-02-28T18:50:50;98764.51;;;-1.95;68.94
75513;BME280;64090;49.770;18.760;2023-02-28T18:54:10;98764.16;;;-1.97;69.54
75513;BME280;64090;49.770;18.760;2023-02-28T18:57:29;98762.55;;;-1.99;69.65
75513;BME280;64090;49.770;18.760;2023-02-28T19:00:32;98756.15;;;-2.05;69.25
75513;BME280;64090;49.770;18.760;2023-02-28T19:04:09;98752.38;;;-2.11;69.44
75513;BME280;64090;49.770;18.760;2023-02-28T19:07:20;98754.09;;;-2.16;69.63
75513;BME280;64090;49.770;18.760;2023-02-28T19:10:40;98750.96;;;-2.19;70.14
75513;BME280;64090;49.770;18.760;2023-02-28T19:13:48;98756.03;;;-2.24;70.11
75513;BME280;64090;49.770;18.760;2023-02-28T19:17:08;98759.58;;;-2.28;70.55